Time;durP1;ratioP1;P1;durP2;ratioP2;P2;SDS_P1;SDS_P2;PMS_P1;PMS_P2;Temp;Humidity;BMP_temperature;BMP_pressure;BME280_temperature;BME280_humidity;BME280_pressure;Samples;Min_cycle;Max_cycle;Signal;HPM_P1;HPM_P2
2021/05/15 00:13:23;;;;;;;13.55;8.00;;;;;;;13.39;100.00;99365.88;713371;1180;100079;-72
2021/05/15 00:28:44;;;;;;;11.80;6.77;;;;;;;13.40;100.00;99378.86;713009;1206;114485;-72
2021/05/15 00:44:18;;;;;;;12.20;7.30;;;;;;;13.31;100.00;99383.33;712635;1206;113893;-71
2021/05/15 00:59:40;;;;;;;11.60;7.60;;;;;;;13.30;100.00;99397.52;712791;1202;113739;-71
2021/05/15 01:15:00;;;;;;;16.17;9.47;;;;;;;13.33;100.00;99404.25;713229;1203;114630;-71
2021/05/15 01:30:21;;;;;;;16.60;9.70;;;;;;;13.23;100.00;99406.28;712927;1189;113866;-72
2021/05/15 01:45:41;;;;;;;16.07;9.53;;;;;;;13.17;100.00;99401.70;713380;1180;114054;-72
2021/05/15 02:01:01;;;;;;;16.70;10.45;;;;;;;12.97;100.00;99413.50;712878;1178;114504;-72
2021/05/15 02:16:21;;;;;;;13.88;9.75;;;;;;;12.88;100.00;99413.69;713485;1203;113948;-72
2021/05/15 02:31:41;;;;;;;16.68;9.20;;;;;;;12.84;100.00;99415.03;713091;1203;114926;-72
2021/05/15 02:47:01;;;;;;;16.45;10.25;;;;;;;12.60;100.00;99404.45;712964;1202;114436;-72
2021/05/15 03:02:21;;;;;;;16.90;11.60;;;;;;;12.56;100.00;99411.01;712883;1202;114230;-72
2021/05/15 03:17:42;;;;;;;18.67;12.13;;;;;;;12.43;100.00;99422.08;713416;1203;114529;-72
2021/05/15 03:33:02;;;;;;;18.63;11.73;;;;;;;12.34;100.00;99438.88;713135;1180;114607;-71
2021/05/15 03:48:21;;;;;;;14.60;10.33;;;;;;;12.29;100.00;99436.73;713573;1203;115678;-71
2021/05/15 04:03:41;;;;;;;14.27;9.17;;;;;;;12.21;100.00;99446.45;713192;1180;114652;-71
2021/05/15 04:19:02;;;;;;;11.70;8.50;;;;;;;12.15;100.00;99454.02;713264;1202;116688;-71
2021/05/15 04:34:21;;;;;;;14.13;9.63;;;;;;;12.22;100.00;99466.48;713612;1203;114647;-71
2021/05/15 04:49:41;;;;;;;17.95;11.00;;;;;;;12.09;100.00;99470.44;713957;1202;114402;-72
2021/05/15 05:05:01;;;;;;;16.05;11.15;;;;;;;12.08;100.00;99481.13;715879;1169;115117;-73
2021/05/15 05:20:21;;;;;;;;;;;;;;;12.09;100.00;99475.70;712462;1202;115070;-72
2021/05/15 05:35:40;;;;;;;16.05;10.88;;;;;;;12.27;100.00;99500.98;713185;1206;100832;-72
2021/05/15 05:51:00;;;;;;;;;;;;;;;12.08;100.00;99499.53;713098;1210;114582;-72
2021/05/15 06:06:20;;;;;;;15.75;10.68;;;;;;;12.05;100.00;99505.94;713294;1202;101374;-72
2021/05/15 06:21:39;;;;;;;17.33;9.90;;;;;;;12.06;100.00;99527.77;712728;1203;115337;-72
2021/05/15 06:36:59;;;;;;;21.58;11.65;;;;;;;11.78;100.00;99546.44;712629;1203;114471;-71
2021/05/15 06:52:19;;;;;;;25.77;12.37;;;;;;;11.68;100.00;99564.98;712957;1205;115710;-72
2021/05/15 07:07:38;;;;;;;;;;;;;;;11.55;100.00;99573.30;713040;1210;114058;-71
2021/05/15 07:22:58;;;;;;;25.70;12.45;;;;;;;11.63;100.00;99577.77;713015;1185;100682;-75
2021/05/15 07:38:21;;;;;;;25.93;13.27;;;;;;;11.81;100.00;99594.24;712718;1202;114424;-74
2021/05/15 07:53:41;;;;;;;17.07;8.63;;;;;;;11.91;100.00;99614.30;712590;1206;114885;-75
2021/05/15 08:09:02;;;;;;;33.50;20.20;;;;;;;11.98;100.00;99623.21;713139;1202;113968;-76
2021/05/15 08:24:22;;;;;;;10.48;5.98;;;;;;;11.91;100.00;99643.22;712717;1202;114239;-74
2021/05/15 08:39:42;;;;;;;4.43;3.28;;;;;;;11.80;100.00;99653.03;712986;1203;113991;-74
2021/05/15 08:55:02;;;;;;;3.13;1.98;;;;;;;12.21;100.00;99656.81;715393;1208;114120;-74
2021/05/15 09:10:25;;;;;;;2.37;1.80;;;;;;;12.56;100.00;99662.77;713117;1206;114668;-73
2021/05/15 09:26:03;;;;;;;6.50;2.75;;;;;;;12.87;100.00;99660.30;712786;1205;115135;-77
2021/05/15 09:41:46;;;;;;;8.70;4.00;;;;;;;13.07;100.00;99670.50;713572;1202;114345;-78
2021/05/15 09:57:15;;;;;;;8.38;5.40;;;;;;;12.88;100.00;99674.28;713365;1202;113756;-77
2021/05/15 10:12:36;;;;;;;14.15;8.15;;;;;;;12.84;100.00;99680.86;712658;1206;113831;-76
2021/05/15 10:28:04;;;;;;;20.90;9.40;;;;;;;13.18;100.00;99682.48;713420;1202;115202;-79
2021/05/15 10:43:32;;;;;;;18.90;10.83;;;;;;;14.67;100.00;99688.81;713723;1202;115071;-79
2021/05/15 10:59:10;;;;;;;17.95;9.25;;;;;;;15.26;100.00;99692.63;713719;1203;114416;-80
2021/05/15 11:14:33;;;;;;;8.45;6.05;;;;;;;16.30;100.00;99691.76;713387;1202;114493;-79
2021/05/15 11:30:05;;;;;;;11.70;5.70;;;;;;;17.17;100.00;99686.44;713212;1206;114795;-83
2021/05/15 11:45:27;;;;;;;4.80;3.80;;;;;;;18.17;98.81;99684.31;713118;1180;113984;-80
2021/05/15 12:00:48;;;;;;;8.47;4.33;;;;;;;18.09;93.27;99687.16;715698;1202;113718;-80
2021/05/15 12:16:08;;;;;;;5.38;4.08;;;;;;;18.01;90.75;99682.03;714011;1203;113775;-79
2021/05/15 12:31:32;;;;;;;4.80;4.00;;;;;;;18.39;86.34;99673.56;712721;1203;114054;-78
2021/05/15 12:46:54;;;;;;;10.25;6.70;;;;;;;20.13;83.58;99669.88;713013;1181;113505;-81
2021/05/15 13:02:20;;;;;;;4.67;2.37;;;;;;;21.25;75.69;99645.27;714694;1203;114443;-81
2021/05/15 13:17:40;;;;;;;5.80;3.25;;;;;;;20.41;69.58;99629.55;714828;1203;113263;-81
2021/05/15 13:33:01;;;;;;;5.95;3.10;;;;;;;21.15;66.68;99620.95;714425;1202;114185;-81
2021/05/15 13:48:31;;;;;;;4.00;2.65;;;;;;;21.63;62.50;99617.58;713471;1203;113951;-79
2021/05/15 14:03:52;;;;;;;5.67;2.90;;;;;;;21.91;63.44;99606.31;714575;1206;113414;-82
2021/05/15 14:19:12;;;;;;;3.53;2.60;;;;;;;22.49;60.19;99608.58;723833;1202;113584;-81
2021/05/15 14:34:33;;;;;;;4.07;2.60;;;;;;;23.63;57.69;99596.64;721859;1203;114839;-81
2021/05/15 14:49:54;;;;;;;4.05;2.75;;;;;;;22.09;58.84;99581.42;712834;1205;113778;-83
2021/05/15 15:05:14;;;;;;;5.00;3.60;;;;;;;21.97;58.86;99583.22;714259;1185;114069;-88
2021/05/15 15:20:36;;;;;;;4.60;3.07;;;;;;;21.42;59.86;99582.28;714360;1203;114978;-87
2021/05/15 15:35:56;;;;;;;16.50;6.25;;;;;;;21.41;59.35;99567.30;714084;1185;113492;-83
2021/05/15 15:51:16;;;;;;;9.10;5.20;;;;;;;21.84;58.74;99559.39;712866;1180;113941;-84
2021/05/15 16:06:37;;;;;;;7.83;4.50;;;;;;;21.39;59.80;99548.06;713041;1180;113780;-84
2021/05/15 16:22:02;;;;;;;6.10;2.90;;;;;;;20.64;59.80;99534.89;713817;1186;113658;-84
2021/05/15 16:37:23;;;;;;;11.88;8.38;;;;;;;21.69;60.78;99527.78;713054;1202;113661;-76
2021/05/15 16:52:43;;;;;;;6.33;4.37;;;;;;;22.32;59.24;99529.09;713441;1203;114033;-79
2021/05/15 17:08:04;;;;;;;6.30;4.40;;;;;;;21.72;59.27;99514.81;712683;1203;113586;-75
2021/05/15 17:23:25;;;;;;;11.50;7.20;;;;;;;20.27;60.59;99508.98;713176;1178;113733;-77
2021/05/15 17:38:51;;;;;;;10.00;4.65;;;;;;;19.51;64.43;99524.81;712680;1206;115410;-75
2021/05/15 17:54:11;;;;;;;18.20;10.65;;;;;;;18.83;67.40;99519.91;712890;1203;114361;-74
2021/05/15 18:09:32;;;;;;;17.03;8.77;;;;;;;18.07;70.76;99522.83;712767;1203;115321;-73
2021/05/15 18:24:55;;;;;;;24.40;17.20;;;;;;;17.39;72.49;99539.55;713086;1205;114139;-73
2021/05/15 18:40:16;;;;;;;15.15;10.60;;;;;;;16.85;73.47;99550.88;712881;1202;115242;-74
2021/05/15 18:55:38;;;;;;;16.35;10.30;;;;;;;16.35;75.03;99551.75;712674;1178;113822;-73
2021/05/15 19:11:10;;;;;;;13.58;6.48;;;;;;;15.89;77.21;99560.04;712853;1206;115762;-74
2021/05/15 19:26:33;;;;;;;17.03;10.80;;;;;;;15.54;79.29;99558.00;712782;1202;114563;-74
2021/05/15 19:41:54;;;;;;;17.23;7.75;;;;;;;15.13;81.94;99554.03;712938;1202;114089;-74
2021/05/15 19:57:19;;;;;;;9.03;6.57;;;;;;;14.86;83.35;99549.39;713359;1203;115591;-76
2021/05/15 20:12:39;;;;;;;11.28;7.10;;;;;;;14.59;85.16;99544.50;714560;1182;113653;-77
2021/05/15 20:28:25;;;;;;;13.68;8.50;;;;;;;14.39;85.79;99543.38;713296;1190;113938;-75
2021/05/15 20:43:47;;;;;;;11.30;6.53;;;;;;;14.12;88.02;99527.09;713189;1202;115109;-76
2021/05/15 20:59:07;;;;;;;11.47;6.63;;;;;;;14.06;88.35;99522.54;712990;1202;114076;-76
2021/05/15 21:14:29;;;;;;;6.80;5.27;;;;;;;13.96;88.43;99512.21;712528;1179;114383;-75
2021/05/15 21:29:50;;;;;;;10.30;6.13;;;;;;;13.92;89.57;99508.29;712791;1203;113555;-75
2021/05/15 21:45:14;;;;;;;13.83;6.10;;;;;;;13.92;91.09;99505.66;712798;1202;115378;-75
2021/05/15 22:00:35;;;;;;;7.90;5.30;;;;;;;13.96;91.82;99499.03;712713;1203;113719;-75
2021/05/15 22:15:56;;;;;;;6.43;4.65;;;;;;;13.83;91.98;99491.73;712576;1182;113964;-75
2021/05/15 22:31:18;;;;;;;7.70;4.75;;;;;;;13.65;92.39;99484.91;712521;1203;114067;-74
2021/05/15 22:46:38;;;;;;;7.55;5.00;;;;;;;13.59;95.62;99469.81;712401;1179;113695;-74
2021/05/15 23:01:59;;;;;;;9.33;5.23;;;;;;;13.58;95.70;99467.33;712491;1202;113685;-74
2021/05/15 23:17:22;;;;;;;5.68;4.40;;;;;;;13.54;96.74;99479.22;712541;1180;113589;-73
2021/05/15 23:32:43;;;;;;;8.48;4.63;;;;;;;13.51;97.73;99469.03;712522;1179;113648;-76
2021/05/15 23:48:05;;;;;;;6.30;4.73;;;;;;;13.38;99.92;99454.63;712419;1188;113680;-74
